Time;durP1;ratioP1;P1;durP2;ratioP2;P2;SDS_P1;SDS_P2;PMS_P1;PMS_P2;Temp;Humidity;BMP_temperature;BMP_pressure;BME280_temperature;BME280_humidity;BME280_pressure;Samples;Min_cycle;Max_cycle;Signal;HPM_P1;HPM_P2
2023/06/22 00:02:19;;;;;;;9.38;7.20;;;;;;;29.41;56.18;99313.97;4843553;29;20057;-88
2023/06/22 00:05:04;;;;;;;8.95;7.28;;;;;;;29.27;56.72;99314.06;4847924;29;20510;-88
2023/06/22 00:07:49;;;;;;;8.52;6.97;;;;;;;29.28;56.43;99314.84;4848156;29;20417;-88
2023/06/22 00:10:33;;;;;;;10.05;7.13;;;;;;;29.15;56.54;99317.38;4846903;29;20053;-88
2023/06/22 00:13:17;;;;;;;10.90;7.50;;;;;;;28.92;56.93;99314.72;4854379;29;20056;-89
2023/06/22 00:16:02;;;;;;;9.50;6.82;;;;;;;28.79;57.15;99310.19;4846657;29;20056;-88
2023/06/22 00:18:47;;;;;;;7.82;7.03;;;;;;;28.67;57.71;99318.03;4842527;29;20079;-87
2023/06/22 00:21:31;;;;;;;9.55;7.30;;;;;;;28.48;59.14;99309.06;4816570;29;20048;-88
2023/06/22 00:24:16;;;;;;;8.88;7.93;;;;;;;28.30;59.10;99315.44;4827646;29;20506;-87
2023/06/22 00:26:59;;;;;;;10.02;7.53;;;;;;;28.19;59.00;99310.28;4829265;29;20065;-88
2023/06/22 00:29:43;;;;;;;8.63;7.78;;;;;;;28.17;59.19;99319.78;4842544;29;20117;-87
2023/06/22 00:32:27;;;;;;;10.52;7.30;;;;;;;28.08;59.48;99314.31;4842649;29;20044;-87
2023/06/22 00:35:12;;;;;;;9.07;6.50;;;;;;;28.07;59.91;99310.78;4841217;29;20102;-87
2023/06/22 00:38:00;;;;;;;8.13;7.05;;;;;;;28.03;60.12;99315.22;4840531;29;20049;-88
2023/06/22 00:40:44;;;;;;;8.25;6.80;;;;;;;27.90;60.34;99319.53;4841623;29;20061;-88
2023/06/22 00:43:28;;;;;;;11.55;8.30;;;;;;;27.83;60.19;99315.66;4842784;29;20052;-88
2023/06/22 00:46:13;;;;;;;8.40;7.43;;;;;;;27.75;59.39;99314.47;4842220;29;20044;-88
2023/06/22 00:48:57;;;;;;;8.70;7.20;;;;;;;27.77;59.94;99315.78;4842074;29;20545;-89
2023/06/22 00:51:45;;;;;;;9.77;7.57;;;;;;;27.78;59.86;99330.84;4841409;29;20076;-88
2023/06/22 00:54:30;;;;;;;7.82;6.97;;;;;;;27.77;60.03;99320.38;4851513;29;20126;-88
2023/06/22 00:57:18;;;;;;;7.28;6.53;;;;;;;27.76;59.68;99324.97;4840260;29;20053;-88
2023/06/22 01:00:05;;;;;;;8.25;6.95;;;;;;;27.73;59.55;99327.47;4840676;29;20044;-88
2023/06/22 01:02:52;;;;;;;8.20;6.97;;;;;;;27.73;59.43;99330.97;4825030;29;20130;-89
2023/06/22 01:05:37;;;;;;;9.48;7.55;;;;;;;27.71;58.97;99322.41;4847672;29;20473;-88
2023/06/22 01:08:22;;;;;;;8.48;7.22;;;;;;;27.73;59.15;99333.69;4832956;29;20098;-88
2023/06/22 01:11:10;;;;;;;9.50;7.05;;;;;;;27.73;59.21;99332.88;4830498;29;20049;-88
2023/06/22 01:14:03;;;;;;;9.15;6.95;;;;;;;27.78;59.37;99344.34;4846502;29;20094;-89
2023/06/22 01:16:48;;;;;;;8.83;7.23;;;;;;;27.57;59.20;99340.47;4837492;29;20516;-88
2023/06/22 01:19:47;;;;;;;10.32;6.40;;;;;;;27.75;58.18;99344.97;4832457;29;20064;-88
2023/06/22 01:22:39;;;;;;;9.02;6.97;;;;;;;27.71;58.71;99353.94;4830284;29;20099;-88
2023/06/22 01:25:31;;;;;;;9.65;6.63;;;;;;;27.73;58.05;99347.16;4842496;29;20503;-87
2023/06/22 01:28:16;;;;;;;7.45;6.00;;;;;;;27.95;57.96;99361.81;4842517;29;20049;-88
2023/06/22 01:31:05;;;;;;;8.90;6.50;;;;;;;27.91;57.69;99337.31;4833195;29;20061;-88
2023/06/22 01:33:53;;;;;;;7.20;6.20;;;;;;;28.20;57.10;99351.56;4832524;29;20075;-88
2023/06/22 01:36:39;;;;;;;9.88;7.38;;;;;;;28.15;57.14;99348.97;4844305;29;20093;-87
2023/06/22 01:39:23;;;;;;;8.25;6.05;;;;;;;28.22;56.40;99352.06;4844600;29;20534;-88
2023/06/22 01:42:08;;;;;;;9.00;6.50;;;;;;;28.21;56.62;99347.75;4828434;29;20057;-86
2023/06/22 01:44:53;;;;;;;7.43;6.53;;;;;;;28.42;56.22;99345.38;4842753;29;20050;-87
2023/06/22 01:47:39;;;;;;;8.45;6.80;;;;;;;28.38;55.98;99346.31;4829763;29;20045;-86
2023/06/22 01:50:24;;;;;;;9.27;7.05;;;;;;;28.35;56.00;99345.81;4841593;29;20474;-87
2023/06/22 01:53:08;;;;;;;8.82;6.65;;;;;;;28.38;55.74;99343.59;4829712;29;20150;-88
2023/06/22 01:55:52;;;;;;;8.73;6.05;;;;;;;28.69;55.30;99353.63;4831226;29;20088;-87
2023/06/22 01:58:42;;;;;;;7.10;6.20;;;;;;;28.84;54.88;99357.91;4844595;29;20141;-88
2023/06/22 02:01:35;;;;;;;8.13;7.20;;;;;;;28.75;55.05;99363.22;4845275;29;20585;-88
2023/06/22 02:04:27;;;;;;;8.05;6.45;;;;;;;28.61;55.51;99361.38;4830508;29;20182;-89
2023/06/22 02:07:16;;;;;;;7.90;6.50;;;;;;;28.46;55.89;99359.88;4829373;29;20049;-88
2023/06/22 02:10:02;;;;;;;7.55;6.45;;;;;;;28.24;56.00;99357.94;4842170;29;20052;-87
2023/06/22 02:12:47;;;;;;;8.85;7.05;;;;;;;28.40;56.06;99357.59;4842911;29;20409;-87
2023/06/22 02:15:32;;;;;;;8.25;6.90;;;;;;;28.57;55.71;99368.53;4842824;29;20048;-87
2023/06/22 02:18:16;;;;;;;8.20;7.10;;;;;;;28.62;55.14;99373.78;4842658;29;20073;-87
2023/06/22 02:21:00;;;;;;;6.65;5.97;;;;;;;28.40;55.86;99371.09;4830757;29;20041;-87
2023/06/22 02:23:44;;;;;;;8.35;6.70;;;;;;;28.36;55.67;99363.59;4843751;29;20408;-87
2023/06/22 02:26:28;;;;;;;11.38;6.68;;;;;;;28.27;55.67;99364.63;4843543;29;20101;-87
2023/06/22 02:29:12;;;;;;;8.48;6.45;;;;;;;28.23;55.33;99359.03;4843588;29;20092;-90
2023/06/22 02:31:57;;;;;;;7.38;6.45;;;;;;;28.35;55.28;99351.22;4843655;29;20053;-87
2023/06/22 02:34:42;;;;;;;7.03;6.22;;;;;;;28.26;55.05;99363.81;4828690;29;20076;-86
2023/06/22 02:37:29;;;;;;;7.93;6.70;;;;;;;28.41;54.81;99364.59;4843519;29;20409;-87
2023/06/22 02:40:13;;;;;;;8.73;6.65;;;;;;;28.19;55.21;99368.88;4834083;29;20045;-88
2023/06/22 02:43:02;;;;;;;8.82;6.32;;;;;;;28.15;55.60;99370.53;4857008;29;20400;-88
2023/06/22 02:45:46;;;;;;;8.15;6.03;;;;;;;28.07;56.13;99370.16;4846146;29;20574;-88
2023/06/22 02:48:30;;;;;;;8.05;6.10;;;;;;;28.07;56.26;99372.06;4823429;29;20061;-88
2023/06/22 02:51:15;;;;;;;7.25;6.30;;;;;;;28.19;56.43;99366.94;4849915;29;20064;-88
2023/06/22 02:53:59;;;;;;;8.02;6.18;;;;;;;28.08;56.12;99371.75;4838965;29;20044;-88
2023/06/22 02:56:45;;;;;;;6.90;5.97;;;;;;;28.02;55.72;99370.28;4835589;29;20089;-89
2023/06/22 02:59:29;;;;;;;7.72;6.90;;;;;;;28.00;55.55;99366.25;4845948;29;20419;-87
2023/06/22 03:02:14;;;;;;;10.05;6.18;;;;;;;28.10;55.51;99368.75;4849073;29;20044;-88
2023/06/22 03:05:00;;;;;;;8.73;6.30;;;;;;;28.24;55.17;99360.63;4848742;29;20468;-90
2023/06/22 03:07:45;;;;;;;7.30;6.00;;;;;;;28.12;55.03;99373.84;4846612;29;20559;-90
2023/06/22 03:10:29;;;;;;;9.40;6.68;;;;;;;28.15;54.96;99370.53;4845937;29;20052;-89
2023/06/22 03:13:13;;;;;;;8.88;6.78;;;;;;;28.13;55.09;99375.44;4844715;29;20187;-89
2023/06/22 03:15:57;;;;;;;6.80;5.95;;;;;;;28.21;54.85;99377.44;4844679;29;20065;-89
2023/06/22 03:18:41;;;;;;;7.28;6.47;;;;;;;28.00;55.13;99377.88;4831263;29;20465;-89
2023/06/22 03:21:27;;;;;;;8.63;6.63;;;;;;;28.11;55.19;99374.97;4843732;29;20137;-89
2023/06/22 03:24:11;;;;;;;8.02;6.75;;;;;;;28.24;55.29;99367.97;4831511;29;20071;-89
2023/06/22 03:26:56;;;;;;;8.38;6.72;;;;;;;27.97;55.37;99356.91;4842615;29;20088;-89
2023/06/22 03:29:40;;;;;;;7.53;6.47;;;;;;;28.11;54.78;99367.66;4843355;29;20049;-89
2023/06/22 03:32:27;;;;;;;7.05;5.90;;;;;;;28.12;55.03;99368.47;4843215;29;20056;-89
2023/06/22 03:35:13;;;;;;;7.93;6.63;;;;;;;28.17;55.21;99362.97;4843095;29;20101;-89
2023/06/22 03:37:57;;;;;;;8.15;6.05;;;;;;;28.19;54.88;99353.44;4844354;29;20080;-89
2023/06/22 03:40:41;;;;;;;7.28;6.30;;;;;;;28.08;54.75;99352.84;4843946;29;20053;-90
2023/06/22 03:43:25;;;;;;;7.78;6.30;;;;;;;27.99;55.07;99368.19;4845679;29;20094;-89
2023/06/22 03:46:09;;;;;;;8.02;6.00;;;;;;;27.95;56.10;99364.50;4839674;29;20053;-89
2023/06/22 03:48:54;;;;;;;8.55;6.28;;;;;;;27.96;56.81;99355.31;4844277;29;20129;-89
2023/06/22 03:51:38;;;;;;;8.48;6.68;;;;;;;27.87;57.32;99359.81;4829563;29;20089;-89
2023/06/22 03:54:23;;;;;;;6.93;6.15;;;;;;;27.88;57.91;99369.50;4842378;29;20086;-89
2023/06/22 03:57:07;;;;;;;7.30;6.03;;;;;;;27.87;57.37;99362.50;4829331;29;20060;-89
2023/06/22 03:59:51;;;;;;;8.20;6.38;;;;;;;27.85;57.62;99367.41;4827771;29;20083;-88
2023/06/22 04:02:35;;;;;;;7.95;6.00;;;;;;;27.87;57.98;99374.09;4841022;29;20053;-89
2023/06/22 04:05:19;;;;;;;6.82;5.80;;;;;;;28.01;57.46;99374.06;4826199;29;20090;-89
2023/06/22 04:08:04;;;;;;;8.65;6.10;;;;;;;28.01;57.84;99378.69;4842281;29;20057;-89
2023/06/22 04:10:49;;;;;;;6.38;5.75;;;;;;;28.00;58.00;99371.66;4842430;29;20074;-87
2023/06/22 04:13:33;;;;;;;9.38;6.25;;;;;;;28.01;57.61;99368.66;4841670;29;20110;-89
2023/06/22 04:16:17;;;;;;;7.35;6.32;;;;;;;27.98;58.11;99363.88;4843460;29;20040;-89
2023/06/22 04:19:01;;;;;;;7.28;5.93;;;;;;;27.99;57.97;99375.47;4830231;29;20052;-89
2023/06/22 04:21:45;;;;;;;7.43;5.90;;;;;;;28.02;58.09;99372.97;4846409;29;20057;-89
2023/06/22 04:24:29;;;;;;;8.68;6.00;;;;;;;27.91;58.57;99364.28;4834416;29;20074;-89
2023/06/22 04:27:13;;;;;;;10.43;7.40;;;;;;;27.96;58.59;99371.50;4845019;29;20064;-89
2023/06/22 04:30:00;;;;;;;7.20;6.50;;;;;;;27.92;58.59;99370.50;4827990;29;20102;-89
2023/06/22 04:32:45;;;;;;;8.02;7.10;;;;;;;28.03;58.59;99371.06;4839974;29;20086;-88
2023/06/22 04:35:29;;;;;;;10.45;7.18;;;;;;;28.00;59.07;99377.88;4840006;29;20068;-89
2023/06/22 04:38:13;;;;;;;9.55;7.30;;;;;;;27.98;59.00;99369.28;4830456;29;20076;-88
2023/06/22 04:40:57;;;;;;;10.73;8.45;;;;;;;27.84;59.53;99373.91;4826638;29;20053;-88
2023/06/22 04:43:41;;;;;;;10.13;7.93;;;;;;;27.86;59.84;99369.00;4840664;29;20056;-88
2023/06/22 04:46:25;;;;;;;8.63;7.45;;;;;;;27.99;59.64;99367.38;4840178;29;20122;-89
2023/06/22 04:49:11;;;;;;;13.18;8.10;;;;;;;28.01;59.91;99367.88;4839983;29;20737;-89
2023/06/22 04:51:56;;;;;;;10.55;8.45;;;;;;;28.02;59.70;99356.78;4840881;29;20049;-89
2023/06/22 04:54:47;;;;;;;9.85;7.47;;;;;;;28.02;60.01;99364.88;4839559;29;20077;-89
2023/06/22 04:57:34;;;;;;;10.30;7.38;;;;;;;28.00;59.66;99361.69;4839863;29;20077;-89
2023/06/22 05:00:22;;;;;;;11.10;7.97;;;;;;;27.92;59.94;99357.00;4840730;29;20460;-88
2023/06/22 05:03:10;;;;;;;11.68;7.65;;;;;;;27.87;60.17;99367.91;4827614;29;20568;-88
2023/06/22 05:05:54;;;;;;;10.77;8.57;;;;;;;27.87;60.43;99362.50;4840779;29;20061;-89
2023/06/22 05:08:38;;;;;;;13.95;8.85;;;;;;;27.92;60.65;99376.69;4841402;29;20049;-88
2023/06/22 05:11:27;;;;;;;11.27;7.72;;;;;;;27.88;60.70;99374.88;4841419;29;20053;-89
2023/06/22 05:14:11;;;;;;;9.25;7.65;;;;;;;27.90;60.59;99378.88;4827949;29;20045;-88
2023/06/22 05:16:58;;;;;;;9.70;7.47;;;;;;;27.87;60.67;99373.28;4826829;29;20589;-88
2023/06/22 05:19:48;;;;;;;10.95;7.90;;;;;;;27.66;60.52;99373.72;4839439;29;20045;-88
2023/06/22 05:22:32;;;;;;;10.05;7.47;;;;;;;27.61;60.56;99381.91;4839723;29;20056;-88
2023/06/22 05:25:16;;;;;;;9.48;6.90;;;;;;;27.83;60.40;99388.50;4839686;29;20056;-89
2023/06/22 05:28:01;;;;;;;8.70;6.95;;;;;;;27.95;60.37;99380.69;4839547;29;20151;-88
2023/06/22 05:30:45;;;;;;;10.52;7.63;;;;;;;27.95;60.56;99380.69;4841217;29;21126;-88
2023/06/22 05:33:29;;;;;;;8.40;7.18;;;;;;;28.04;60.63;99384.25;4828388;29;20049;-88
2023/06/22 05:36:14;;;;;;;11.77;8.45;;;;;;;28.26;60.75;99392.72;4842000;29;20060;-88
2023/06/22 05:38:58;;;;;;;10.23;7.97;;;;;;;28.35;60.23;99391.72;4827486;29;20053;-87
2023/06/22 05:41:43;;;;;;;7.88;7.07;;;;;;;28.63;60.01;99388.88;4835208;29;20062;-87
2023/06/22 05:44:27;;;;;;;7.53;6.63;;;;;;;28.60;59.29;99392.19;4824236;29;20118;-88
2023/06/22 05:47:11;;;;;;;9.68;7.47;;;;;;;28.69;59.25;99399.56;4825331;29;20083;-88
2023/06/22 05:49:55;;;;;;;8.63;6.45;;;;;;;28.60;58.88;99400.31;4837603;29;20053;-89
2023/06/22 05:52:39;;;;;;;6.97;6.28;;;;;;;29.04;56.79;99394.41;4829157;29;20462;-88
2023/06/22 05:55:23;;;;;;;6.57;5.60;;;;;;;29.35;56.59;99393.59;4811506;29;20437;-88
2023/06/22 05:58:08;;;;;;;8.27;5.57;;;;;;;29.54;55.67;99398.00;4832977;29;20421;-88
2023/06/22 06:00:52;;;;;;;7.43;5.25;;;;;;;29.54;55.04;99398.00;4836863;29;20069;-88
2023/06/22 06:03:40;;;;;;;7.75;5.32;;;;;;;29.83;55.25;99402.03;4834435;29;20117;-88
2023/06/22 06:06:28;;;;;;;7.50;5.63;;;;;;;29.60;54.97;99407.56;4820579;29;20122;-88
2023/06/22 06:09:14;;;;;;;6.75;5.25;;;;;;;30.21;54.82;99398.78;4823840;29;20167;-88
2023/06/22 06:11:58;;;;;;;9.40;6.43;;;;;;;29.75;55.26;99392.78;4825062;29;20099;-88
2023/06/22 06:14:42;;;;;;;9.80;5.97;;;;;;;30.29;55.03;99398.00;4821729;29;20152;-85
2023/06/22 06:17:26;;;;;;;5.85;5.20;;;;;;;30.39;54.69;99398.78;4820563;29;20125;-84
2023/06/22 06:20:11;;;;;;;8.23;5.78;;;;;;;30.41;54.87;99408.19;4828687;29;20568;-83
2023/06/22 06:22:56;;;;;;;7.53;6.40;;;;;;;30.43;54.18;99405.16;4822274;29;20045;-86
2023/06/22 06:25:40;;;;;;;11.35;6.75;;;;;;;30.53;54.10;99404.84;4822802;29;20053;-86
2023/06/22 06:28:25;;;;;;;7.43;5.68;;;;;;;30.59;54.14;99408.97;4834541;29;20050;-84
2023/06/22 06:31:09;;;;;;;9.38;6.00;;;;;;;30.78;54.43;99421.41;4833800;29;20099;-85
2023/06/22 06:33:53;;;;;;;9.00;6.10;;;;;;;30.89;53.78;99416.44;4817166;29;20052;-86
2023/06/22 06:36:38;;;;;;;6.53;5.53;;;;;;;31.19;53.02;99420.03;4820430;29;20099;-85
2023/06/22 06:39:22;;;;;;;6.85;5.93;;;;;;;31.55;52.35;99422.63;4818659;29;20614;-85
2023/06/22 06:42:06;;;;;;;7.38;5.68;;;;;;;31.24;51.42;99418.28;4835198;29;20065;-87
2023/06/22 06:44:50;;;;;;;8.68;5.72;;;;;;;31.23;51.55;99424.81;4837121;29;20057;-85
2023/06/22 06:47:34;;;;;;;6.30;5.70;;;;;;;31.30;51.30;99425.13;4836272;29;20072;-88
2023/06/22 06:50:19;;;;;;;6.57;5.65;;;;;;;31.12;51.87;99430.59;4836086;29;20049;-85
2023/06/22 06:53:05;;;;;;;8.32;5.90;;;;;;;31.86;51.64;99429.69;4837485;29;20057;-88
2023/06/22 06:55:49;;;;;;;8.00;6.05;;;;;;;32.18;51.30;99430.91;4826792;29;20065;-90
2023/06/22 06:58:33;;;;;;;8.88;5.68;;;;;;;32.27;50.67;99439.00;4827316;29;20420;-89
2023/06/22 07:01:17;;;;;;;7.45;5.78;;;;;;;32.34;51.27;99439.28;4836282;29;20067;-89
2023/06/22 07:04:01;;;;;;;8.35;5.35;;;;;;;32.53;50.24;99429.84;4838806;29;20053;-88
2023/06/22 07:06:45;;;;;;;6.82;5.35;;;;;;;32.66;49.81;99433.41;4837718;29;20529;-88
2023/06/22 07:09:29;;;;;;;8.68;5.40;;;;;;;32.54;50.09;99433.38;4841721;29;20416;-89
2023/06/22 07:12:13;;;;;;;8.23;5.82;;;;;;;32.73;49.50;99438.31;4836721;29;20559;-90
2023/06/22 07:15:05;;;;;;;6.82;5.78;;;;;;;32.93;49.59;99433.19;4826717;29;20125;-85
2023/06/22 07:17:48;;;;;;;6.15;5.18;;;;;;;32.78;48.62;99432.66;4836779;29;20072;-86
2023/06/22 07:20:32;;;;;;;6.63;5.90;;;;;;;33.08;48.23;99437.19;4824934;29;20236;-89
2023/06/22 07:23:17;;;;;;;8.02;6.10;;;;;;;33.30;48.80;99433.25;4834013;29;20129;-87
2023/06/22 07:26:02;;;;;;;6.45;5.50;;;;;;;33.58;47.80;99443.50;4837818;29;20182;-88
2023/06/22 07:28:45;;;;;;;9.23;5.90;;;;;;;33.96;47.92;99444.28;4836659;29;20065;-86
2023/06/22 07:31:29;;;;;;;10.07;5.55;;;;;;;33.82;47.50;99439.19;4839361;29;20088;-88
2023/06/22 07:34:13;;;;;;;6.95;5.30;;;;;;;34.04;46.95;99438.72;4843677;29;20048;-88
2023/06/22 07:36:58;;;;;;;5.25;4.72;;;;;;;34.57;46.83;99439.84;4843523;29;20396;-87
2023/06/22 07:39:42;;;;;;;6.07;5.32;;;;;;;34.83;46.69;99444.84;4855034;29;20048;-88
2023/06/22 07:42:27;;;;;;;6.15;5.15;;;;;;;34.88;45.78;99438.31;4843873;29;20106;-88
2023/06/22 07:45:11;;;;;;;5.75;5.25;;;;;;;35.02;46.70;99443.41;4858043;29;20040;-88
2023/06/22 07:47:56;;;;;;;6.10;5.50;;;;;;;34.97;46.47;99438.97;4858269;29;20070;-87
2023/06/22 07:50:40;;;;;;;6.05;5.45;;;;;;;35.09;46.47;99440.84;4857267;29;20644;-88
2023/06/22 07:53:25;;;;;;;6.38;5.43;;;;;;;34.96;46.29;99442.03;4851821;29;20397;-86
2023/06/22 07:56:12;;;;;;;6.97;5.28;;;;;;;35.05;46.56;99436.44;4843918;29;20416;-87
2023/06/22 07:58:58;;;;;;;6.35;5.05;;;;;;;35.05;45.17;99439.97;4844031;29;20501;-88
2023/06/22 08:01:43;;;;;;;11.05;5.60;;;;;;;35.16;45.13;99443.75;4843227;29;20504;-88
2023/06/22 08:04:28;;;;;;;7.35;5.75;;;;;;;34.95;44.25;99440.44;4843541;29;20045;-85
2023/06/22 08:07:12;;;;;;;7.78;5.50;;;;;;;35.00;46.11;99442.94;4828992;29;20114;-86
2023/06/22 08:09:59;;;;;;;8.57;5.57;;;;;;;35.15;45.40;99446.84;4842384;29;20122;-87
2023/06/22 08:12:43;;;;;;;6.35;5.63;;;;;;;34.67;45.54;99441.28;4841601;29;20520;-80
2023/06/22 08:15:28;;;;;;;8.48;5.75;;;;;;;34.59;45.43;99446.53;4847009;29;20121;-86
2023/06/22 08:18:12;;;;;;;6.82;5.57;;;;;;;34.52;45.37;99449.06;4845262;29;20060;-86
2023/06/22 08:20:55;;;;;;;6.63;5.63;;;;;;;34.13;45.38;99451.41;4839784;29;20092;-84
2023/06/22 08:23:39;;;;;;;7.40;5.80;;;;;;;34.19;44.78;99447.31;4839128;29;20196;-83
2023/06/22 08:26:26;;;;;;;10.27;5.95;;;;;;;34.45;44.99;99446.88;4839026;29;20045;-84
2023/06/22 08:29:10;;;;;;;6.25;5.65;;;;;;;34.29;44.36;99444.09;4837497;29;20041;-84
2023/06/22 08:31:54;;;;;;;9.77;6.80;;;;;;;34.05;44.45;99450.41;4835097;29;20125;-83
2023/06/22 08:34:42;;;;;;;9.75;6.72;;;;;;;34.96;44.12;99442.03;4837759;29;20078;-84
2023/06/22 08:37:30;;;;;;;8.90;6.30;;;;;;;35.33;43.01;99444.53;4835142;29;20118;-83
2023/06/22 08:40:14;;;;;;;10.73;6.07;;;;;;;35.41;43.15;99446.31;4836944;29;20058;-83
2023/06/22 08:42:58;;;;;;;8.25;5.85;;;;;;;35.52;44.26;99443.06;4825351;29;20078;-83
2023/06/22 08:45:42;;;;;;;7.07;6.38;;;;;;;35.15;43.45;99438.66;4838460;29;20116;-83
2023/06/22 08:48:26;;;;;;;9.07;6.20;;;;;;;34.98;43.06;99456.09;4822645;29;20107;-84
2023/06/22 08:51:10;;;;;;;7.47;6.05;;;;;;;35.48;43.36;99455.81;4836323;29;20126;-84
2023/06/22 08:53:54;;;;;;;7.30;5.55;;;;;;;35.20;44.63;99443.84;4835840;29;20081;-84
2023/06/22 08:56:38;;;;;;;7.18;5.90;;;;;;;35.02;44.16;99446.13;4832923;29;20404;-84
2023/06/22 08:59:22;;;;;;;8.40;6.72;;;;;;;35.40;43.15;99447.47;4841178;29;20064;-84
2023/06/22 09:02:06;;;;;;;6.97;5.90;;;;;;;35.58;43.51;99449.84;4826768;29;20088;-84
2023/06/22 09:04:55;;;;;;;10.98;6.68;;;;;;;35.39;43.78;99448.59;4832804;29;20056;-84
2023/06/22 09:07:40;;;;;;;8.13;6.10;;;;;;;35.80;44.13;99444.88;4833250;29;20056;-85
2023/06/22 09:10:25;;;;;;;10.25;7.32;;;;;;;34.70;43.09;99441.38;4822638;29;20099;-85
2023/06/22 09:13:09;;;;;;;8.60;7.28;;;;;;;34.39;44.08;99439.28;4836347;29;20096;-85
2023/06/22 09:15:53;;;;;;;7.93;6.68;;;;;;;34.37;45.33;99438.84;4835416;29;20185;-85
2023/06/22 09:18:37;;;;;;;10.00;7.00;;;;;;;34.67;44.95;99444.00;4837693;29;20564;-85
2023/06/22 09:21:21;;;;;;;9.13;7.05;;;;;;;33.68;45.30;99445.78;4834833;29;20082;-84
2023/06/22 09:24:05;;;;;;;8.02;6.85;;;;;;;34.51;45.31;99452.91;4838628;29;20126;-84
2023/06/22 09:26:50;;;;;;;9.48;7.03;;;;;;;33.99;45.27;99457.22;4842414;29;20053;-84
2023/06/22 09:29:34;;;;;;;10.23;7.40;;;;;;;33.75;45.91;99448.72;4828155;29;20093;-85
2023/06/22 09:32:18;;;;;;;9.55;7.60;;;;;;;32.79;46.80;99442.41;4842604;29;20077;-84
2023/06/22 09:35:05;;;;;;;8.02;7.03;;;;;;;33.93;45.16;99453.91;4842756;29;20110;-85
2023/06/22 09:37:50;;;;;;;7.53;6.70;;;;;;;34.31;45.20;99452.72;4842611;29;20085;-85
2023/06/22 09:40:39;;;;;;;9.20;7.40;;;;;;;33.79;46.43;99459.72;4836167;29;20114;-84
2023/06/22 09:43:23;;;;;;;11.13;7.55;;;;;;;34.29;46.79;99452.28;4838651;29;20462;-86
2023/06/22 09:46:09;;;;;;;9.18;7.22;;;;;;;34.41;45.55;99451.44;4836440;29;20037;-85
2023/06/22 09:48:53;;;;;;;9.75;7.18;;;;;;;34.38;45.15;99457.59;4832254;29;20130;-85
2023/06/22 09:51:37;;;;;;;9.35;7.13;;;;;;;34.68;45.07;99456.50;4814777;29;20702;-85
2023/06/22 09:54:21;;;;;;;12.20;7.85;;;;;;;34.62;44.46;99457.88;4834949;29;20045;-84
2023/06/22 09:57:06;;;;;;;8.15;7.35;;;;;;;34.68;44.02;99467.41;4838459;29;20161;-85
2023/06/22 09:59:50;;;;;;;8.95;7.60;;;;;;;35.17;43.97;99464.41;4838505;29;20080;-86
2023/06/22 10:02:34;;;;;;;12.98;8.05;;;;;;;35.52;43.82;99467.63;4842649;29;20044;-85
2023/06/22 10:05:18;;;;;;;9.88;6.97;;;;;;;35.36;43.39;99465.66;4827680;29;20091;-85
2023/06/22 10:08:02;;;;;;;10.57;7.57;;;;;;;36.16;43.00;99470.25;4827848;29;20147;-86
2023/06/22 10:10:47;;;;;;;10.32;7.93;;;;;;;37.02;42.00;99470.41;4827021;29;20053;-85
2023/06/22 10:13:31;;;;;;;10.30;7.30;;;;;;;36.62;40.69;99461.44;4841960;29;20045;-85
2023/06/22 10:16:15;;;;;;;10.15;7.00;;;;;;;37.29;40.13;99465.00;4828487;29;20124;-86
2023/06/22 10:18:59;;;;;;;7.97;7.18;;;;;;;37.41;40.43;99467.56;4841957;29;20565;-86
2023/06/22 10:21:43;;;;;;;8.13;7.32;;;;;;;36.41;40.76;99467.28;4842148;29;20053;-86
2023/06/22 10:24:27;;;;;;;8.85;7.00;;;;;;;37.33;41.87;99460.38;4824163;29;20133;-82
2023/06/22 10:27:11;;;;;;;7.88;6.90;;;;;;;37.68;41.43;99461.34;4839508;29;20041;-86
2023/06/22 10:29:55;;;;;;;8.80;7.93;;;;;;;37.40;41.36;99468.72;4838676;29;20048;-86
2023/06/22 10:32:40;;;;;;;10.27;8.07;;;;;;;37.53;40.91;99474.81;4827996;29;20144;-86
2023/06/22 10:35:24;;;;;;;9.27;8.23;;;;;;;37.09;40.87;99484.22;4827386;29;20044;-86
2023/06/22 10:38:08;;;;;;;10.98;8.60;;;;;;;37.63;40.28;99478.06;4838283;29;20049;-86
2023/06/22 10:40:52;;;;;;;10.20;8.65;;;;;;;37.79;40.71;99480.66;4836099;29;20086;-86
2023/06/22 10:43:36;;;;;;;9.13;8.23;;;;;;;37.72;40.83;99476.63;4837939;29;20080;-82
2023/06/22 10:46:20;;;;;;;12.88;8.48;;;;;;;37.85;40.31;99479.19;4836734;29;20103;-86
2023/06/22 10:49:04;;;;;;;10.45;8.80;;;;;;;36.64;41.69;99482.97;4840300;29;20052;-84
2023/06/22 10:51:48;;;;;;;12.80;9.48;;;;;;;36.16;42.06;99481.19;4839336;29;20133;-84
2023/06/22 10:54:35;;;;;;;11.60;9.10;;;;;;;36.51;42.65;99487.78;4826226;29;20109;-85
2023/06/22 10:57:20;;;;;;;10.32;8.70;;;;;;;36.51;42.91;99477.59;4827598;29;20049;-85
2023/06/22 11:00:06;;;;;;;13.48;9.57;;;;;;;36.44;42.14;99488.41;4838462;29;20117;-84
2023/06/22 11:02:51;;;;;;;13.18;9.20;;;;;;;35.62;42.44;99488.94;4834985;29;20057;-86
2023/06/22 11:05:35;;;;;;;13.05;10.27;;;;;;;35.33;43.35;99481.97;4839477;29;20106;-86
2023/06/22 11:08:19;;;;;;;11.52;10.02;;;;;;;35.43;43.94;99482.22;4826816;29;20048;-86
2023/06/22 11:11:03;;;;;;;11.48;10.20;;;;;;;34.91;43.84;99488.66;4837425;29;20405;-86
2023/06/22 11:13:47;;;;;;;11.55;9.65;;;;;;;35.02;43.66;99484.31;4823416;29;20062;-86
2023/06/22 11:16:31;;;;;;;10.13;9.07;;;;;;;34.92;44.05;99482.03;4836271;29;20071;-82
2023/06/22 11:19:15;;;;;;;14.00;9.57;;;;;;;34.78;45.15;99488.69;4838951;29;20036;-83
2023/06/22 11:21:59;;;;;;;12.07;9.55;;;;;;;34.69;45.74;99496.25;4825655;29;20069;-84
2023/06/22 11:24:43;;;;;;;12.55;9.60;;;;;;;34.69;46.08;99494.31;4826596;29;20049;-84
2023/06/22 11:27:28;;;;;;;13.68;9.50;;;;;;;34.40;45.83;99498.91;4838366;29;20048;-84
2023/06/22 11:30:12;;;;;;;13.90;9.68;;;;;;;34.08;45.10;99497.97;4836820;29;20118;-83
2023/06/22 11:32:58;;;;;;;12.73;10.32;;;;;;;34.29;46.03;99489.63;4836471;29;20561;-84
2023/06/22 11:35:42;;;;;;;20.35;13.05;;;;;;;31.52;100.00;99501.97;4825982;29;20094;-83
2023/06/22 11:38:27;;;;;;;18.80;13.20;;;;;;;29.67;88.54;99493.66;4838592;29;20048;-82
2023/06/22 11:41:11;;;;;;;17.70;13.75;;;;;;;29.21;91.09;99497.22;4835418;29;20466;-84
2023/06/22 11:43:55;;;;;;;18.60;12.80;;;;;;;27.74;96.77;99505.16;4838673;29;20066;-84
2023/06/22 11:46:39;;;;;;;15.57;12.70;;;;;;;27.85;97.63;99499.56;4837528;29;20084;-84
2023/06/22 11:49:23;;;;;;;19.25;13.57;;;;;;;28.74;100.00;99497.47;4836642;29;20054;-84
2023/06/22 11:52:07;;;;;;;21.00;15.07;;;;;;;29.15;96.41;99484.94;4840277;29;20045;-84
2023/06/22 11:54:51;;;;;;;19.25;14.45;;;;;;;29.65;91.34;99483.13;4826668;29;20048;-84
2023/06/22 11:57:36;;;;;;;19.13;13.35;;;;;;;30.63;92.16;99485.78;4839113;29;20408;-84
2023/06/22 12:00:23;;;;;;;21.17;13.18;;;;;;;30.87;80.38;99478.31;4836655;29;20574;-86
2023/06/22 12:03:09;;;;;;;15.55;12.93;;;;;;;31.51;84.23;99481.38;4825324;29;20058;-86
2023/06/22 12:05:53;;;;;;;14.30;12.80;;;;;;;31.47;79.90;99487.47;4836962;29;20564;-86
2023/06/22 12:08:37;;;;;;;18.08;12.88;;;;;;;30.91;83.84;99481.97;4837252;29;20128;-85
2023/06/22 12:11:25;;;;;;;18.67;13.30;;;;;;;30.79;85.16;99482.59;4837992;29;20105;-86
2023/06/22 12:14:09;;;;;;;13.80;11.40;;;;;;;30.88;81.76;99490.72;4825814;29;20053;-86
2023/06/22 12:16:53;;;;;;;14.63;12.00;;;;;;;31.67;76.93;99485.16;4826280;29;20400;-85
2023/06/22 12:19:37;;;;;;;14.15;11.82;;;;;;;31.37;76.67;99476.16;4839064;29;20094;-86
2023/06/22 12:22:22;;;;;;;13.75;11.80;;;;;;;31.56;75.35;99479.28;4841181;29;20577;-86
2023/06/22 12:25:07;;;;;;;17.13;11.63;;;;;;;30.70;74.56;99460.16;4827353;29;20400;-85
2023/06/22 12:27:51;;;;;;;16.80;11.95;;;;;;;31.56;73.60;99464.91;4828137;29;20085;-82
2023/06/22 12:30:35;;;;;;;20.90;12.30;;;;;;;31.88;68.40;99460.00;4842419;29;20105;-83
2023/06/22 12:33:19;;;;;;;11.50;8.68;;;;;;;32.44;64.74;99464.47;4842479;29;20466;-83
2023/06/22 12:36:04;;;;;;;6.88;6.18;;;;;;;32.64;60.17;99472.94;4839899;29;20076;-83
2023/06/22 12:38:49;;;;;;;9.02;5.70;;;;;;;31.43;58.21;99475.63;4828558;29;20061;-83
2023/06/22 12:41:33;;;;;;;6.28;5.68;;;;;;;31.06;61.07;99469.84;4842070;29;20049;-82
2023/06/22 12:44:17;;;;;;;8.10;5.68;;;;;;;31.34;60.32;99464.03;4841397;29;20049;-82
2023/06/22 12:47:01;;;;;;;7.43;6.13;;;;;;;31.70;60.75;99470.94;4841081;29;20464;-85
2023/06/22 12:49:45;;;;;;;8.48;7.43;;;;;;;32.07;60.21;99465.00;4826880;29;20080;-82
2023/06/22 12:52:31;;;;;;;10.60;9.13;;;;;;;32.51;61.68;99469.34;4840427;29;20090;-83